createdAt,value
2019-01-24T00:00:13.580Z,94.30
2019-01-24T00:01:32.128Z,94.30
2019-01-24T00:02:49.008Z,94.10
2019-01-24T00:04:06.217Z,93.70
2019-01-24T00:05:22.516Z,93.40
2019-01-24T00:06:38.931Z,93.70
2019-01-24T00:07:55.781Z,93.70
2019-01-24T00:09:12.103Z,93.70
2019-01-24T00:10:28.561Z,93.60
2019-01-24T00:11:45.001Z,93.50
2019-01-24T00:13:01.624Z,93.50
2019-01-24T00:14:17.950Z,93.30
2019-01-24T00:15:34.908Z,93.50
2019-01-24T00:16:51.513Z,93.40
2019-01-24T00:18:07.865Z,93.40
2019-01-24T00:19:24.973Z,93.20
2019-01-24T00:20:41.437Z,93.10
2019-01-24T00:21:58.265Z,93.10
2019-01-24T00:23:14.608Z,92.60
2019-01-24T00:24:30.889Z,93.00
2019-01-24T00:25:48.061Z,92.80
2019-01-24T00:27:04.348Z,93.00
2019-01-24T00:28:21.312Z,92.90
2019-01-24T00:29:38.104Z,92.80
2019-01-24T00:30:54.790Z,92.90
2019-01-24T00:32:11.036Z,92.80
2019-01-24T00:33:27.364Z,93.10
2019-01-24T00:34:43.732Z,93.40
2019-01-24T00:36:00.119Z,93.20
2019-01-24T00:37:16.932Z,93.30
2019-01-24T00:38:33.789Z,93.40
2019-01-24T00:39:50.292Z,93.60
2019-01-24T00:41:07.377Z,93.50
2019-01-24T00:42:24.225Z,93.60
2019-01-24T00:43:41.145Z,93.80
2019-01-24T00:44:57.705Z,93.80
2019-01-24T00:46:14.405Z,93.60
2019-01-24T00:47:30.755Z,93.90
2019-01-24T00:48:47.522Z,93.90
2019-01-24T00:50:03.991Z,93.60
2019-01-24T00:51:20.758Z,93.80
2019-01-24T00:52:37.460Z,93.70
2019-01-24T00:53:53.893Z,93.40
2019-01-24T00:55:10.496Z,93.00
2019-01-24T00:56:26.980Z,93.30
2019-01-24T00:57:43.447Z,93.30
2019-01-24T00:58:58.661Z,93.20
2019-01-24T01:00:23.411Z,93.20
2019-01-24T01:01:39.778Z,93.10
2019-01-24T01:02:56.905Z,92.90
2019-01-24T01:04:13.350Z,92.70
2019-01-24T01:05:29.880Z,92.80
2019-01-24T01:06:46.752Z,92.70
2019-01-24T01:08:03.666Z,92.60
2019-01-24T01:09:19.923Z,92.80
2019-01-24T01:10:37.208Z,92.70
2019-01-24T01:11:53.604Z,92.60
2019-01-24T01:13:10.157Z,92.70
2019-01-24T01:14:26.749Z,92.80
2019-01-24T01:15:43.886Z,92.70
2019-01-24T01:17:00.805Z,92.70
2019-01-24T01:18:17.173Z,92.60
2019-01-24T01:19:33.468Z,92.40
2019-01-24T01:20:50.861Z,92.40
2019-01-24T01:22:07.709Z,92.30
2019-01-24T01:23:25.558Z,92.40
2019-01-24T01:24:41.984Z,92.50
2019-01-24T01:25:59.158Z,92.40
2019-01-24T01:27:15.599Z,92.40
2019-01-24T01:28:32.029Z,92.40
2019-01-24T01:29:48.960Z,92.50
2019-01-24T01:31:05.385Z,92.60
2019-01-24T01:32:22.638Z,92.50
2019-01-24T01:33:39.069Z,92.60
2019-01-24T01:34:55.608Z,92.60
2019-01-24T01:36:12.807Z,92.70
2019-01-24T01:37:29.463Z,92.70
2019-01-24T01:38:45.973Z,92.50
2019-01-24T01:40:05.052Z,92.20
2019-01-24T01:41:21.407Z,92.10
2019-01-24T01:42:38.143Z,92.10
2019-01-24T01:43:54.877Z,92.10
2019-01-24T01:45:12.053Z,91.80
2019-01-24T01:46:28.662Z,91.80
2019-01-24T01:47:45.703Z,91.80
2019-01-24T01:49:02.112Z,91.80
2019-01-24T01:50:18.661Z,91.80
2019-01-24T01:51:35.904Z,91.80
2019-01-24T01:52:52.648Z,91.70
2019-01-24T01:54:09.168Z,91.90
2019-01-24T01:55:25.548Z,91.80
2019-01-24T01:56:42.130Z,91.70
2019-01-24T01:57:58.605Z,91.80
2019-01-24T01:59:15.232Z,91.90
2019-01-24T02:00:31.789Z,91.80
2019-01-24T02:01:47.017Z,91.80
2019-01-24T02:03:03.349Z,91.70
2019-01-24T02:04:20.121Z,91.60
2019-01-24T02:05:36.675Z,91.50
2019-01-24T02:06:53.112Z,91.60
2019-01-24T02:08:10.211Z,91.60
2019-01-24T02:09:27.388Z,91.80
2019-01-24T02:10:43.877Z,92.00
2019-01-24T02:12:00.303Z,91.90
2019-01-24T02:13:16.944Z,92.00
2019-01-24T02:14:34.057Z,92.00
2019-01-24T02:15:50.482Z,91.70
2019-01-24T02:17:07.160Z,91.70
2019-01-24T02:18:23.876Z,91.60
2019-01-24T02:19:40.382Z,91.70
2019-01-24T02:20:57.050Z,91.70
2019-01-24T02:22:14.051Z,91.60
2019-01-24T02:23:30.815Z,91.60
2019-01-24T02:24:47.389Z,91.50
2019-01-24T02:26:03.934Z,91.40
2019-01-24T02:27:20.479Z,91.40
2019-01-24T02:28:36.789Z,91.30
2019-01-24T02:29:53.342Z,91.30
2019-01-24T02:31:09.780Z,91.20
2019-01-24T02:32:26.694Z,91.40
2019-01-24T02:33:41.908Z,91.30
2019-01-24T02:35:06.225Z,91.10
2019-01-24T02:36:22.816Z,90.90
2019-01-24T02:37:39.280Z,90.80
2019-01-24T02:38:56.002Z,90.80
2019-01-24T02:40:12.418Z,90.70
2019-01-24T02:41:29.281Z,90.60
2019-01-24T02:42:45.594Z,90.50
2019-01-24T02:44:02.059Z,90.70
2019-01-24T02:45:18.577Z,90.80
2019-01-24T02:46:35.176Z,90.80
2019-01-24T02:47:52.772Z,90.90
2019-01-24T02:49:09.618Z,90.80
2019-01-24T02:50:25.833Z,90.70
2019-01-24T02:51:42.296Z,90.60
2019-01-24T02:52:58.884Z,90.60
2019-01-24T02:54:15.714Z,90.70
2019-01-24T02:55:32.364Z,90.70
2019-01-24T02:56:49.263Z,90.60
2019-01-24T02:58:05.641Z,90.80
2019-01-24T02:59:22.259Z,91.00
2019-01-24T03:00:39.492Z,90.90
2019-01-24T03:01:56.793Z,91.20
2019-01-24T03:03:13.286Z,91.20
2019-01-24T03:04:29.710Z,91.30
2019-01-24T03:05:46.580Z,91.30
2019-01-24T03:07:03.748Z,91.10
2019-01-24T03:08:20.803Z,91.20
2019-01-24T03:09:37.198Z,91.50
2019-01-24T03:10:54.360Z,91.60
2019-01-24T03:12:10.865Z,91.50
2019-01-24T03:13:27.409Z,91.60
2019-01-24T03:14:43.714Z,91.60
2019-01-24T03:16:00.518Z,91.50
2019-01-24T03:17:17.246Z,91.60
2019-01-24T03:18:33.947Z,91.80
2019-01-24T03:19:49.076Z,91.90
2019-01-24T03:21:13.293Z,91.70
2019-01-24T03:22:31.149Z,91.50
2019-01-24T03:23:51.248Z,91.70
2019-01-24T03:25:07.633Z,91.60
2019-01-24T03:26:24.085Z,91.60
2019-01-24T03:27:40.512Z,91.70
2019-01-24T03:28:57.035Z,91.70
2019-01-24T03:30:13.517Z,91.50
2019-01-24T03:31:30.014Z,91.50
2019-01-24T03:32:46.697Z,91.50
2019-01-24T03:34:03.600Z,91.40
2019-01-24T03:35:20.273Z,91.40
2019-01-24T03:36:36.817Z,91.70
2019-01-24T03:37:54.051Z,91.80
2019-01-24T03:39:10.322Z,91.70
2019-01-24T03:40:26.772Z,91.70
2019-01-24T03:41:43.104Z,91.70
2019-01-24T03:42:59.914Z,91.70
2019-01-24T03:44:16.389Z,91.60
2019-01-24T03:45:33.092Z,91.80
2019-01-24T03:46:49.573Z,91.70
2019-01-24T03:48:07.285Z,91.60
2019-01-24T03:49:24.393Z,91.60
2019-01-24T03:50:41.052Z,91.50
2019-01-24T03:51:57.505Z,91.30
2019-01-24T03:53:14.577Z,91.10
2019-01-24T03:54:31.068Z,91.10
2019-01-24T03:55:47.461Z,91.20
2019-01-24T03:57:04.258Z,91.30
2019-01-24T03:58:20.592Z,91.30
2019-01-24T03:59:38.467Z,91.10
2019-01-24T04:00:54.833Z,91.20
2019-01-24T04:02:11.737Z,91.20
2019-01-24T04:03:28.422Z,91.20
2019-01-24T04:04:45.606Z,91.20
2019-01-24T04:06:01.924Z,91.20
2019-01-24T04:07:18.529Z,91.30
2019-01-24T04:08:35.162Z,91.50
2019-01-24T04:09:52.046Z,91.60
2019-01-24T04:11:08.361Z,91.60
2019-01-24T04:12:24.856Z,91.40
2019-01-24T04:13:42.380Z,91.50
2019-01-24T04:14:59.505Z,91.70
2019-01-24T04:16:16.783Z,91.60
2019-01-24T04:17:33.125Z,91.60
2019-01-24T04:18:50.278Z,91.60
2019-01-24T04:20:06.779Z,91.70
2019-01-24T04:21:23.865Z,91.60
2019-01-24T04:22:40.605Z,91.60
2019-01-24T04:23:57.228Z,91.60
2019-01-24T04:25:15.526Z,91.60
2019-01-24T04:26:32.037Z,91.60
2019-01-24T04:27:48.576Z,91.80
2019-01-24T04:29:05.224Z,91.80
2019-01-24T04:30:21.900Z,91.60
2019-01-24T04:31:38.452Z,91.70
2019-01-24T04:32:55.475Z,91.70
2019-01-24T04:34:11.825Z,91.60
2019-01-24T04:35:28.441Z,91.50
2019-01-24T04:36:44.837Z,91.50
2019-01-24T04:38:02.284Z,91.60
2019-01-24T04:39:19.184Z,91.60
2019-01-24T04:40:35.929Z,91.40
2019-01-24T04:41:52.235Z,91.40
2019-01-24T04:43:08.829Z,91.30
2019-01-24T04:44:25.534Z,91.40
2019-01-24T04:45:42.077Z,91.70
2019-01-24T04:46:59.392Z,91.60
2019-01-24T04:48:15.987Z,91.50
2019-01-24T04:49:32.431Z,91.60
2019-01-24T04:50:48.851Z,91.50
2019-01-24T04:52:05.573Z,91.50
2019-01-24T04:53:22.128Z,91.50
2019-01-24T04:54:39.020Z,91.60
2019-01-24T04:55:55.316Z,91.60
2019-01-24T04:57:11.853Z,91.50
2019-01-24T04:58:29.449Z,91.50
2019-01-24T04:59:46.197Z,91.40
2019-01-24T05:01:02.734Z,91.30
2019-01-24T05:02:19.971Z,91.40
2019-01-24T05:03:36.418Z,91.60
2019-01-24T05:04:53.126Z,91.30
2019-01-24T05:06:10.082Z,91.70
2019-01-24T05:07:25.352Z,92.00
2019-01-24T05:08:41.853Z,92.00
2019-01-24T05:09:59.496Z,91.80
2019-01-24T05:11:16.096Z,91.70
2019-01-24T05:12:32.607Z,91.50
2019-01-24T05:13:49.447Z,91.70
2019-01-24T05:15:06.089Z,91.80
2019-01-24T05:16:23.169Z,91.70
2019-01-24T05:17:39.690Z,91.60
2019-01-24T05:18:56.688Z,91.60
2019-01-24T05:20:15.664Z,91.60
2019-01-24T05:21:32.259Z,91.80
2019-01-24T05:22:49.251Z,91.90
2019-01-24T05:24:04.415Z,91.90
2019-01-24T05:25:28.606Z,91.90
2019-01-24T05:26:45.775Z,92.10
2019-01-24T05:28:02.130Z,92.30
2019-01-24T05:29:18.614Z,92.30
2019-01-24T05:30:35.305Z,92.20
2019-01-24T05:31:52.324Z,92.10
2019-01-24T05:33:09.095Z,92.00
2019-01-24T05:34:25.593Z,91.90
2019-01-24T05:35:42.395Z,91.80
2019-01-24T05:36:58.978Z,91.80
2019-01-24T05:38:15.412Z,91.80
2019-01-24T05:39:31.809Z,91.80
2019-01-24T05:40:49.085Z,91.80
2019-01-24T05:42:06.142Z,91.70
2019-01-24T05:43:21.352Z,91.50
2019-01-24T05:44:37.950Z,91.40
2019-01-24T05:45:54.436Z,91.20
2019-01-24T05:47:11.058Z,91.40
2019-01-24T05:48:27.520Z,91.40
2019-01-24T05:49:44.284Z,91.40
2019-01-24T05:51:01.153Z,91.30
2019-01-24T05:52:19.705Z,91.30
2019-01-24T05:53:36.787Z,91.40
2019-01-24T05:54:53.364Z,91.30
2019-01-24T05:56:09.885Z,91.30
2019-01-24T05:57:26.381Z,91.30
2019-01-24T05:58:42.977Z,91.20
2019-01-24T05:59:59.543Z,91.10
2019-01-24T06:01:16.266Z,91.20
2019-01-24T06:02:32.743Z,91.20
2019-01-24T06:03:49.381Z,91.10
2019-01-24T06:05:06.470Z,91.20
2019-01-24T06:06:23.613Z,91.20
2019-01-24T06:07:40.147Z,91.20
2019-01-24T06:08:56.882Z,91.20
2019-01-24T06:10:13.304Z,91.20
2019-01-24T06:11:29.982Z,91.30
2019-01-24T06:12:47.888Z,91.20
2019-01-24T06:14:05.079Z,91.40
2019-01-24T06:15:21.600Z,91.30
2019-01-24T06:16:38.174Z,91.20
2019-01-24T06:17:54.594Z,91.30
2019-01-24T06:19:11.016Z,91.30
2019-01-24T06:20:27.322Z,91.30
2019-01-24T06:21:44.316Z,91.10
2019-01-24T06:23:00.641Z,91.00
2019-01-24T06:24:17.060Z,91.00
2019-01-24T06:25:33.595Z,91.00
2019-01-24T06:26:50.404Z,91.00
2019-01-24T06:28:06.741Z,90.90
2019-01-24T06:29:22.945Z,91.00
2019-01-24T06:30:39.388Z,91.00
2019-01-24T06:31:55.985Z,91.10
2019-01-24T06:33:12.961Z,91.10
2019-01-24T06:34:29.375Z,91.10
2019-01-24T06:35:48.799Z,91.20
2019-01-24T06:37:04.525Z,91.20
2019-01-24T06:38:21.322Z,91.30
2019-01-24T06:39:38.079Z,91.20
2019-01-24T06:40:54.626Z,91.20
2019-01-24T06:42:11.050Z,91.10
2019-01-24T06:43:28.042Z,91.00
2019-01-24T06:44:45.946Z,90.90
2019-01-24T06:46:02.292Z,90.80
2019-01-24T06:47:19.224Z,91.00
2019-01-24T06:48:35.537Z,91.20
2019-01-24T06:49:51.919Z,91.10
2019-01-24T06:51:08.613Z,91.10
2019-01-24T06:52:23.884Z,91.10
2019-01-24T06:53:47.969Z,91.10
2019-01-24T06:55:04.319Z,91.20
2019-01-24T06:56:20.917Z,91.20
2019-01-24T06:57:37.433Z,91.10
2019-01-24T06:58:54.455Z,91.10
2019-01-24T07:00:11.038Z,91.00
2019-01-24T07:01:28.428Z,91.00
2019-01-24T07:02:44.899Z,91.00
2019-01-24T07:04:01.520Z,91.10
2019-01-24T07:05:18.013Z,91.10
2019-01-24T07:06:34.425Z,91.10
2019-01-24T07:07:50.905Z,90.80
2019-01-24T07:09:07.579Z,90.90
2019-01-24T07:10:27.435Z,91.00
2019-01-24T07:11:44.283Z,90.90
2019-01-24T07:13:00.797Z,91.00
2019-01-24T07:14:17.402Z,91.10
2019-01-24T07:15:34.665Z,91.20
2019-01-24T07:16:51.356Z,91.20
2019-01-24T07:18:07.910Z,91.10
2019-01-24T07:19:24.341Z,91.10
2019-01-24T07:20:40.877Z,91.10
2019-01-24T07:21:57.984Z,91.10
2019-01-24T07:23:14.370Z,90.80
2019-01-24T07:24:31.068Z,90.80
2019-01-24T07:25:47.409Z,90.70
2019-01-24T07:27:03.833Z,90.60
2019-01-24T07:28:20.602Z,90.60
2019-01-24T07:29:37.732Z,90.50
2019-01-24T07:30:54.156Z,90.40
2019-01-24T07:32:10.892Z,90.30
2019-01-24T07:33:27.432Z,90.30
2019-01-24T07:34:44.224Z,90.20
2019-01-24T07:36:02.272Z,90.30
2019-01-24T07:37:19.054Z,90.30
2019-01-24T07:38:36.181Z,90.30
2019-01-24T07:39:52.640Z,90.20
2019-01-24T07:41:09.356Z,90.10
2019-01-24T07:42:26.060Z,90.00
2019-01-24T07:43:42.688Z,89.80
2019-01-24T07:44:59.669Z,89.80
2019-01-24T07:46:16.166Z,89.80
2019-01-24T07:47:33.300Z,90.00
2019-01-24T07:48:49.758Z,90.00
2019-01-24T07:50:06.769Z,90.00
2019-01-24T07:51:23.153Z,89.80
2019-01-24T07:52:39.696Z,89.40
2019-01-24T07:53:56.836Z,89.50
2019-01-24T07:55:13.414Z,89.60
2019-01-24T07:56:30.192Z,89.00
2019-01-24T07:57:46.518Z,89.00
2019-01-24T07:59:03.145Z,89.00
2019-01-24T08:00:19.782Z,88.80
2019-01-24T08:01:37.040Z,88.00
2019-01-24T08:02:53.593Z,88.10
2019-01-24T08:04:10.086Z,88.50
2019-01-24T08:05:26.453Z,88.50
2019-01-24T08:06:43.675Z,88.40
2019-01-24T08:08:00.146Z,88.20
2019-01-24T08:09:17.061Z,87.90
2019-01-24T08:10:33.518Z,87.60
2019-01-24T08:11:49.950Z,87.40
2019-01-24T08:13:07.013Z,87.10
2019-01-24T08:14:24.101Z,87.10
2019-01-24T08:15:40.448Z,86.80
2019-01-24T08:16:58.139Z,86.50
2019-01-24T08:18:14.641Z,86.50
2019-01-24T08:19:31.723Z,86.50
2019-01-24T08:20:48.958Z,86.50
2019-01-24T08:22:05.557Z,86.50
2019-01-24T08:23:22.262Z,86.40
2019-01-24T08:24:39.000Z,86.30
2019-01-24T08:25:55.780Z,86.60
2019-01-24T08:27:12.268Z,86.50
2019-01-24T08:28:29.093Z,86.30
2019-01-24T08:29:45.525Z,86.40
2019-01-24T08:31:02.310Z,86.80
2019-01-24T08:32:18.684Z,87.10
2019-01-24T08:33:35.375Z,87.30
2019-01-24T08:34:52.334Z,87.20
2019-01-24T08:36:15.431Z,86.90
2019-01-24T08:37:28.379Z,86.70
2019-01-24T08:38:44.667Z,86.60
2019-01-24T08:40:01.138Z,86.10
2019-01-24T08:41:18.121Z,85.90
2019-01-24T08:42:34.473Z,86.30
2019-01-24T08:43:49.698Z,86.50
2019-01-24T08:45:13.952Z,86.50
2019-01-24T08:46:30.245Z,86.10
2019-01-24T08:47:47.085Z,86.10
2019-01-24T08:49:03.725Z,85.80
2019-01-24T08:50:20.840Z,86.00
2019-01-24T08:51:35.962Z,86.40
2019-01-24T08:52:52.625Z,86.00
2019-01-24T08:54:09.507Z,86.20
2019-01-24T08:55:26.180Z,86.00
2019-01-24T08:56:50.354Z,85.70
2019-01-24T08:58:06.931Z,86.50
2019-01-24T08:59:29.301Z,86.30
2019-01-24T09:00:41.826Z,86.30
2019-01-24T09:01:58.310Z,86.50
2019-01-24T09:03:16.487Z,86.20
2019-01-24T09:04:33.181Z,86.20
2019-01-24T09:05:49.598Z,86.20
2019-01-24T09:07:06.884Z,85.70
2019-01-24T09:08:23.849Z,85.50
2019-01-24T09:09:40.772Z,84.40
2019-01-24T09:10:57.120Z,84.50
2019-01-24T09:12:13.564Z,84.70
2019-01-24T09:13:30.505Z,84.50
2019-01-24T09:14:47.030Z,83.90
2019-01-24T09:16:03.523Z,84.10
2019-01-24T09:17:19.929Z,84.20
2019-01-24T09:18:36.505Z,83.80
2019-01-24T09:19:53.162Z,83.70
2019-01-24T09:21:10.303Z,83.70
2019-01-24T09:22:26.969Z,83.80
2019-01-24T09:23:44.245Z,83.70
2019-01-24T09:25:00.956Z,83.50
2019-01-24T09:26:17.694Z,82.90
2019-01-24T09:27:34.224Z,82.80
2019-01-24T09:28:51.207Z,82.50
2019-01-24T09:30:08.081Z,82.30
2019-01-24T09:31:24.617Z,81.70
2019-01-24T09:32:40.988Z,81.60
2019-01-24T09:33:58.144Z,80.80
2019-01-24T09:35:14.621Z,80.80
2019-01-24T09:36:31.821Z,80.40
2019-01-24T09:37:48.178Z,80.50
2019-01-24T09:39:06.129Z,80.30
2019-01-24T09:40:22.678Z,80.50
2019-01-24T09:41:39.339Z,80.50
2019-01-24T09:42:56.353Z,80.10
2019-01-24T09:44:12.858Z,79.50
2019-01-24T09:45:29.173Z,79.50
2019-01-24T09:46:45.792Z,79.00
2019-01-24T09:48:02.249Z,79.00
2019-01-24T09:49:18.869Z,78.80
2019-01-24T09:50:34.110Z,78.20
2019-01-24T09:51:58.285Z,77.80
2019-01-24T09:53:14.792Z,77.10
2019-01-24T09:54:31.291Z,76.70
2019-01-24T09:55:48.081Z,76.50
2019-01-24T09:57:05.005Z,76.30
2019-01-24T09:58:21.604Z,76.10
2019-01-24T09:59:38.193Z,75.50
2019-01-24T10:00:54.718Z,75.50
2019-01-24T10:02:11.783Z,75.40
2019-01-24T10:03:28.278Z,74.80
2019-01-24T10:04:44.633Z,74.70
2019-01-24T10:06:01.081Z,74.40
2019-01-24T10:07:17.449Z,74.40
2019-01-24T10:08:33.893Z,74.70
2019-01-24T10:09:50.619Z,74.10
2019-01-24T10:11:07.092Z,73.80
2019-01-24T10:12:24.215Z,73.30
2019-01-24T10:13:41.209Z,73.30
2019-01-24T10:14:57.589Z,73.20
2019-01-24T10:16:13.069Z,73.50
2019-01-24T10:17:37.188Z,74.10
2019-01-24T10:18:54.125Z,74.10
2019-01-24T10:20:10.581Z,74.30
2019-01-24T10:21:27.021Z,74.30
2019-01-24T10:22:43.945Z,74.10
2019-01-24T10:24:01.045Z,74.20
2019-01-24T10:25:17.951Z,73.90
2019-01-24T10:26:34.276Z,74.10
2019-01-24T10:27:50.602Z,73.80
2019-01-24T10:29:07.160Z,73.70
2019-01-24T10:30:23.637Z,73.20
2019-01-24T10:31:40.201Z,72.00
2019-01-24T10:32:56.950Z,70.30
2019-01-24T10:34:13.400Z,69.60
2019-01-24T10:35:29.772Z,68.10
2019-01-24T10:36:46.091Z,67.00
2019-01-24T10:38:03.078Z,67.00
2019-01-24T10:39:19.377Z,66.50
2019-01-24T10:40:35.862Z,65.70
2019-01-24T10:41:52.646Z,63.80
2019-01-24T10:43:09.085Z,63.20
2019-01-24T10:44:25.516Z,62.30
2019-01-24T10:45:41.827Z,62.50
2019-01-24T10:46:58.406Z,62.40
2019-01-24T10:48:15.146Z,61.60
2019-01-24T10:49:31.687Z,60.80
2019-01-24T10:50:48.221Z,60.20
2019-01-24T10:52:04.714Z,60.50
2019-01-24T10:53:21.576Z,60.30
2019-01-24T10:54:37.995Z,60.70
2019-01-24T10:55:54.502Z,60.10
2019-01-24T10:57:11.085Z,60.20
2019-01-24T10:58:29.936Z,60.40
2019-01-24T10:59:46.466Z,60.60
2019-01-24T11:01:03.120Z,60.50
2019-01-24T11:02:19.690Z,60.60
2019-01-24T11:03:36.714Z,60.90
2019-01-24T11:04:53.450Z,61.70
2019-01-24T11:06:10.412Z,61.60
2019-01-24T11:07:27.000Z,61.80
2019-01-24T11:08:43.456Z,61.60
2019-01-24T11:10:00.161Z,62.10
2019-01-24T11:11:16.712Z,62.00
2019-01-24T11:12:33.817Z,61.60
2019-01-24T11:13:50.534Z,61.40
2019-01-24T11:15:07.580Z,61.50
2019-01-24T11:16:24.397Z,61.50
2019-01-24T11:17:41.064Z,61.20
2019-01-24T11:18:57.837Z,61.20
2019-01-24T11:20:14.737Z,61.20
2019-01-24T11:21:31.310Z,61.50
2019-01-24T11:22:47.964Z,61.20
2019-01-24T11:24:04.300Z,60.90
2019-01-24T11:25:20.956Z,61.10
2019-01-24T11:26:38.313Z,60.90
2019-01-24T11:27:54.595Z,60.70
2019-01-24T11:29:11.680Z,60.50
2019-01-24T11:30:28.379Z,60.40
2019-01-24T11:31:45.484Z,59.40
2019-01-24T11:33:02.318Z,59.90
2019-01-24T11:34:18.929Z,60.70
2019-01-24T11:35:35.773Z,60.80
2019-01-24T11:36:57.043Z,60.80
2019-01-24T11:38:10.922Z,60.70
2019-01-24T11:39:27.204Z,60.60
2019-01-24T11:40:44.646Z,60.40
2019-01-24T11:42:01.062Z,60.20
2019-01-24T11:43:18.281Z,60.30
2019-01-24T11:44:36.173Z,60.70
2019-01-24T11:45:52.506Z,60.50
2019-01-24T11:47:16.677Z,60.40
2019-01-24T11:48:33.209Z,60.50
2019-01-24T11:49:49.741Z,60.40
2019-01-24T11:51:06.940Z,60.40
2019-01-24T11:52:23.661Z,61.00
2019-01-24T11:53:40.411Z,60.80
2019-01-24T11:54:57.668Z,61.40
2019-01-24T11:56:14.759Z,61.90
2019-01-24T11:57:31.061Z,61.80
2019-01-24T11:58:47.659Z,61.80
2019-01-24T12:00:04.036Z,61.80
2019-01-24T12:01:21.705Z,61.90
2019-01-24T12:02:39.852Z,62.70
2019-01-24T12:03:55.154Z,62.70
2019-01-24T12:05:11.615Z,62.70
2019-01-24T12:06:28.431Z,62.60
2019-01-24T12:07:45.317Z,62.90
2019-01-24T12:09:01.867Z,62.70
2019-01-24T12:10:11.962Z,63.10
2019-01-24T12:11:17.083Z,63.40
2019-01-24T12:12:22.221Z,63.70
2019-01-24T12:13:27.418Z,64.00
2019-01-24T12:14:32.508Z,63.90
2019-01-24T12:15:37.573Z,64.20
2019-01-24T12:16:42.660Z,64.30
2019-01-24T12:17:47.752Z,64.80
2019-01-24T12:18:52.788Z,64.60
2019-01-24T12:19:57.837Z,64.50
2019-01-24T12:21:02.963Z,64.80
2019-01-24T12:22:07.976Z,65.10
2019-01-24T12:23:13.061Z,65.60
2019-01-24T12:24:18.102Z,66.00
2019-01-24T12:25:23.342Z,66.10
2019-01-24T12:26:28.417Z,65.70
2019-01-24T12:27:34.703Z,65.60
2019-01-24T12:28:39.807Z,65.40
2019-01-24T12:29:44.819Z,65.00
2019-01-24T12:30:49.850Z,65.00
2019-01-24T12:31:55.024Z,64.80
2019-01-24T12:33:00.323Z,64.60
2019-01-24T12:34:05.414Z,64.60
2019-01-24T12:35:10.656Z,64.50
2019-01-24T12:36:15.825Z,64.70
2019-01-24T12:37:20.844Z,64.50
2019-01-24T12:38:25.857Z,64.30
2019-01-24T12:39:30.944Z,64.30
2019-01-24T12:40:35.985Z,64.40
2019-01-24T12:41:41.064Z,64.80
2019-01-24T12:42:47.271Z,64.00
2019-01-24T12:43:52.342Z,63.90
2019-01-24T12:45:00.450Z,64.10
2019-01-24T12:46:05.684Z,63.80
2019-01-24T12:47:10.728Z,63.70
2019-01-24T12:48:15.810Z,63.40
2019-01-24T12:49:21.301Z,64.10
2019-01-24T12:50:26.442Z,63.80
2019-01-24T12:51:31.668Z,63.40
2019-01-24T12:52:36.773Z,63.80
2019-01-24T12:53:41.887Z,64.30
2019-01-24T12:54:46.969Z,64.60
2019-01-24T12:55:52.091Z,65.00
2019-01-24T12:56:57.169Z,64.70
2019-01-24T12:58:02.266Z,64.70
2019-01-24T12:59:07.326Z,64.60
2019-01-24T13:00:15.787Z,64.50
2019-01-24T13:01:20.885Z,63.90
2019-01-24T13:02:25.944Z,64.50
2019-01-24T13:03:31.008Z,64.60
2019-01-24T13:04:36.149Z,65.10
2019-01-24T13:05:41.168Z,65.80
2019-01-24T13:06:46.197Z,66.30
2019-01-24T13:07:51.341Z,65.40
2019-01-24T13:08:56.443Z,65.00
2019-01-24T13:10:01.518Z,64.90
2019-01-24T13:11:06.657Z,65.50
2019-01-24T13:12:11.745Z,65.70
2019-01-24T13:13:16.888Z,66.00
2019-01-24T13:14:22.069Z,65.40
2019-01-24T13:15:29.416Z,65.30
2019-01-24T13:16:34.513Z,65.20
2019-01-24T13:17:40.636Z,65.70
2019-01-24T13:18:45.692Z,65.90
2019-01-24T13:19:50.889Z,65.90
2019-01-24T13:20:56.011Z,66.20
2019-01-24T13:22:01.129Z,65.80
2019-01-24T13:23:07.884Z,65.20
2019-01-24T13:24:12.944Z,65.60
2019-01-24T13:25:20.370Z,65.90
2019-01-24T13:26:25.397Z,66.20
2019-01-24T13:27:30.513Z,66.40
2019-01-24T13:28:35.612Z,66.70
2019-01-24T13:29:40.731Z,66.90
2019-01-24T13:30:45.852Z,67.50
2019-01-24T13:31:50.973Z,67.50
2019-01-24T13:32:56.082Z,68.00
2019-01-24T13:34:01.215Z,68.00
2019-01-24T13:35:06.324Z,68.00
2019-01-24T13:36:11.489Z,67.70
2019-01-24T13:37:16.608Z,67.60
2019-01-24T13:38:21.693Z,66.90
2019-01-24T13:39:26.835Z,66.40
2019-01-24T13:40:34.642Z,66.50
2019-01-24T13:41:42.539Z,66.70
2019-01-24T13:42:46.675Z,66.90
2019-01-24T13:43:51.807Z,67.20
2019-01-24T13:44:56.879Z,67.40
2019-01-24T13:46:02.001Z,67.20
2019-01-24T13:47:07.120Z,67.30
2019-01-24T13:48:12.225Z,67.60
2019-01-24T13:49:19.637Z,67.80
2019-01-24T13:50:24.792Z,67.90
2019-01-24T13:51:29.888Z,68.00
2019-01-24T13:52:34.894Z,68.10
2019-01-24T13:53:40.075Z,68.40
2019-01-24T13:54:45.189Z,68.50
2019-01-24T13:55:50.275Z,68.80
2019-01-24T13:56:55.668Z,68.90
2019-01-24T13:58:00.769Z,69.10
2019-01-24T13:59:05.861Z,69.10
2019-01-24T14:00:17.544Z,69.10
2019-01-24T14:01:22.730Z,69.30
2019-01-24T14:02:28.304Z,69.30
2019-01-24T14:03:44.156Z,69.30
2019-01-24T14:04:49.911Z,69.40
2019-01-24T14:05:55.635Z,69.40
2019-01-24T14:07:00.754Z,69.70
2019-01-24T14:08:06.153Z,70.00
2019-01-24T14:09:11.352Z,70.30
2019-01-24T14:10:16.873Z,70.60
2019-01-24T14:11:21.927Z,70.80
2019-01-24T14:12:27.048Z,70.90
2019-01-24T14:13:32.229Z,70.80
2019-01-24T14:14:37.251Z,71.00
2019-01-24T14:15:43.462Z,70.60
2019-01-24T14:16:48.477Z,70.90
2019-01-24T14:17:53.577Z,71.10
2019-01-24T14:18:58.752Z,71.00
2019-01-24T14:20:05.203Z,71.10
2019-01-24T14:21:10.293Z,71.10
2019-01-24T14:22:15.316Z,71.30
2019-01-24T14:23:20.396Z,71.50
2019-01-24T14:24:25.417Z,72.20
2019-01-24T14:25:30.536Z,72.10
2019-01-24T14:26:35.607Z,71.90
2019-01-24T14:27:40.696Z,72.00
2019-01-24T14:28:45.780Z,72.30
2019-01-24T14:29:50.780Z,72.70
2019-01-24T14:30:55.891Z,72.90
2019-01-24T14:32:00.900Z,73.00
2019-01-24T14:33:05.935Z,73.10
2019-01-24T14:34:11.013Z,73.60
2019-01-24T14:35:16.145Z,73.60
2019-01-24T14:36:25.243Z,73.60
2019-01-24T14:37:28.136Z,73.50
2019-01-24T14:38:33.437Z,73.80
2019-01-24T14:39:38.606Z,73.80
2019-01-24T14:40:43.731Z,73.80
2019-01-24T14:41:48.897Z,74.10
2019-01-24T14:42:53.936Z,74.20
2019-01-24T14:43:59.005Z,74.70
2019-01-24T14:45:05.678Z,75.10
2019-01-24T14:46:10.744Z,75.30
2019-01-24T14:47:15.861Z,75.40
2019-01-24T14:48:22.108Z,76.20
2019-01-24T14:49:27.139Z,76.70
2019-01-24T14:50:32.240Z,77.10
2019-01-24T14:51:37.259Z,77.60
2019-01-24T14:52:42.346Z,77.80
2019-01-24T14:53:47.433Z,78.00
2019-01-24T14:54:52.669Z,78.60
2019-01-24T14:55:57.848Z,79.30
2019-01-24T14:57:02.884Z,79.60
2019-01-24T14:58:07.904Z,80.10
2019-01-24T14:59:13.013Z,79.80
2019-01-24T15:00:33.001Z,79.70
2019-01-24T15:01:38.081Z,79.80
2019-01-24T15:02:43.252Z,79.90
2019-01-24T15:03:48.282Z,80.00
2019-01-24T15:04:53.437Z,80.20
2019-01-24T15:05:58.577Z,80.40
2019-01-24T15:07:03.749Z,80.40
2019-01-24T15:08:08.772Z,80.50
2019-01-24T15:09:13.945Z,80.50
2019-01-24T15:10:19.456Z,80.80
2019-01-24T15:11:24.585Z,81.00
2019-01-24T15:12:29.618Z,81.40
2019-01-24T15:13:34.671Z,81.40
2019-01-24T15:14:39.848Z,81.40
2019-01-24T15:15:44.906Z,81.20
2019-01-24T15:16:50.060Z,81.40
2019-01-24T15:17:55.090Z,81.40
2019-01-24T15:19:00.169Z,81.80
2019-01-24T15:20:06.363Z,82.10
2019-01-24T15:21:11.436Z,81.90
2019-01-24T15:22:16.479Z,81.70
2019-01-24T15:23:21.513Z,81.80
2019-01-24T15:24:26.624Z,82.00
2019-01-24T15:25:31.733Z,82.20
2019-01-24T15:26:36.840Z,82.30
2019-01-24T15:27:41.971Z,82.30
2019-01-24T15:28:47.084Z,82.50
2019-01-24T15:29:52.144Z,82.90
2019-01-24T15:30:57.211Z,83.10
2019-01-24T15:32:02.305Z,83.60
2019-01-24T15:33:07.496Z,83.80
2019-01-24T15:34:12.622Z,84.00
2019-01-24T15:35:18.311Z,84.30
2019-01-24T15:36:23.372Z,84.70
2019-01-24T15:37:28.434Z,85.20
2019-01-24T15:38:33.645Z,85.20
2019-01-24T15:39:38.717Z,85.30
2019-01-24T15:40:43.806Z,86.00
2019-01-24T15:41:48.913Z,85.70
2019-01-24T15:42:53.963Z,85.40
2019-01-24T15:43:59.077Z,85.60
2019-01-24T15:45:07.065Z,85.40
2019-01-24T15:46:12.192Z,85.10
2019-01-24T15:47:17.296Z,85.00
2019-01-24T15:48:22.414Z,84.60
2019-01-24T15:49:27.513Z,84.60
2019-01-24T15:50:32.628Z,85.30